Ora Direzione Vento Velocita' Vento Media Vento Raffica Max. Temperatura Wind Chill Pioggia Pressione
18:54:54.0308 °(NW)5.1 Kts4.6 Kts12.8 Kts24.3 °C25.77 °C0.0 mm1018.5 Hpa
18:33:51.0272 °(W)5.8 Kts5.6 Kts12.8 Kts25.3 °C26.91 °C0.0 mm1019.0 Hpa
18:12:52.0271 °(W)5.7 Kts5.53 Kts12.8 Kts25.0 °C26.56 °C0.0 mm1017.8 Hpa
17:53:39.0260 °(W)6.0 Kts6.1 Kts12.8 Kts24.3 °C25.68 °C0.0 mm1019.5 Hpa
17:34:47.0264 °(W)7.7 Kts7.16 Kts12.8 Kts24.0 °C25.22 °C0.0 mm1019.3 Hpa
17:13:43.0262 °(W)10.4 Kts10.26 Kts12.8 Kts23.2 °C24.09 °C0.0 mm1018.8 Hpa
16:54:42.0267 °(W)6.6 Kts6.43 Kts12.8 Kts23.0 °C24.06 °C0.0 mm1019.5 Hpa
16:33:36.0258 °(WSW)9.6 Kts9.46 Kts12.8 Kts22.7 °C23.53 °C0.0 mm1018.8 Hpa
16:14:28.0251 °(WSW)8.0 Kts7.96 Kts12.8 Kts22.8 °C23.73 °C0.0 mm1018.8 Hpa
15:53:14.0243 °(WSW)7.5 Kts8.03 Kts12.8 Kts22.8 °C23.75 °C0.0 mm1019.5 Hpa
15:34:16.0242 °(WSW)9.3 Kts9.2 Kts12.8 Kts23.1 °C24.03 °C0.0 mm1019.5 Hpa
15:13:09.0241 °(WSW)8.6 Kts9.03 Kts12.8 Kts22.5 °C23.31 °C0.0 mm1019.3 Hpa
14:54:18.0252 °(WSW)9.4 Kts8.9 Kts12.8 Kts22.3 °C23.04 °C0.0 mm1019.1 Hpa
14:33:15.0237 °(WSW)9.2 Kts7.16 Kts12.8 Kts22.6 °C23.41 °C0.0 mm1018.6 Hpa
14:14:19.0237 °(WSW)7.5 Kts8.0 Kts12.8 Kts22.1 °C22.89 °C0.0 mm1019.1 Hpa
13:53:19.0255 °(WSW)8.6 Kts8.86 Kts12.8 Kts22.0 °C22.69 °C0.0 mm1020.9 Hpa
13:34:38.0247 °(WSW)7.0 Kts7.46 Kts12.8 Kts22.1 °C22.97 °C0.0 mm1018.6 Hpa
13:13:40.0235 °(SW)7.6 Kts7.93 Kts12.8 Kts23.2 °C24.24 °C0.0 mm1018.1 Hpa
12:52:50.0235 °(SW)6.3 Kts7.06 Kts12.8 Kts22.6 °C23.62 °C0.0 mm1019.1 Hpa
12:33:56.0217 °(SW)7.9 Kts7.96 Kts12.8 Kts22.2 °C23.01 °C0.0 mm1018.6 Hpa